GMMY/NNA METAR and TAF weather

Enter ICAO airport designator
Station Type Date Time Source
GMMY METAR 2017/02/10 11:30 UTC NOAA

GMMY 101130Z 28011KT 9999 SCT023 SCT200 15/05 Q1014 NOSIG


Station Type Date Time Source
GMMY Decoded METAR 2017/02/10 11:30 UTC NOAA

Kenitra, Morocco (GMMY) 34-18N 006-36W 14M
Feb 10, 2017 - 06:30 AM EST / 2017.02.10 1130 UTC
Wind: from the W (280 degrees) at 13 MPH (11 KT):0
Visibility: greater than 7 mile(s):0
Sky conditions: partly cloudy
Temperature: 59 F (15 C)
Dew Point: 41 F (5 C)
Relative Humidity: 51%
Pressure (altimeter): 29.94 in. Hg (1014 hPa)
ob: GMMY 101130Z 28011KT 9999 SCT023 SCT200 15/05 Q1014 NOSIG
cycle: 11

Station Type Date Time Source
GMMY TAF 2016/06/03 00:00 UTC NOAA

TAF GMMY 032300Z 0400/0506 02004KT 8000 NSC
TEMPO 0416/0422 32014KT


Example: see airport list